sensor_id;sensor_type;location;lat;lon;timestamp;temperature;humidity
7196;DHT22;3639;51.308;5.624;2023-02-28T00:00:11;-0.50;99.90
7196;DHT22;3639;51.308;5.624;2023-02-28T00:02:40;-0.40;99.90
7196;DHT22;3639;51.308;5.624;2023-02-28T00:05:06;-0.50;99.90
7196;DHT22;3639;51.308;5.624;2023-02-28T00:07:33;-0.50;99.90
7196;DHT22;3639;51.308;5.624;2023-02-28T00:09:59;-0.50;99.90
7196;DHT22;3639;51.308;5.624;2023-02-28T00:12:25;-0.50;99.90
7196;DHT22;3639;51.308;5.624;2023-02-28T00:14:52;-0.50;99.90
7196;DHT22;3639;51.308;5.624;2023-02-28T00:17:18;-0.40;99.90
7196;DHT22;3639;51.308;5.624;2023-02-28T00:19:50;-0.50;99.90
7196;DHT22;3639;51.308;5.624;2023-02-28T00:22:21;-0.50;99.90
7196;DHT22;3639;51.308;5.624;2023-02-28T00:24:47;-0.50;99.90
7196;DHT22;3639;51.308;5.624;2023-02-28T00:27:13;-0.50;99.90
7196;DHT22;3639;51.308;5.624;2023-02-28T00:29:39;-0.50;99.90
7196;DHT22;3639;51.308;5.624;2023-02-28T00:32:06;-0.60;99.90
7196;DHT22;3639;51.308;5.624;2023-02-28T00:34:32;-0.60;99.90
7196;DHT22;3639;51.308;5.624;2023-02-28T00:37:07;-0.70;99.90
7196;DHT22;3639;51.308;5.624;2023-02-28T00:39:34;-0.70;99.90
7196;DHT22;3639;51.308;5.624;2023-02-28T00:42:00;-0.70;99.90
7196;DHT22;3639;51.308;5.624;2023-02-28T00:44:26;-0.70;99.90
7196;DHT22;3639;51.308;5.624;2023-02-28T00:46:52;-0.70;99.90
7196;DHT22;3639;51.308;5.624;2023-02-28T00:49:19;-0.70;99.90
7196;DHT22;3639;51.308;5.624;2023-02-28T00:51:45;-0.70;99.90
7196;DHT22;3639;51.308;5.624;2023-02-28T00:54:11;-0.70;99.90
7196;DHT22;3639;51.308;5.624;2023-02-28T00:56:37;-0.70;99.90
7196;DHT22;3639;51.308;5.624;2023-02-28T00:59:03;-0.80;99.90
7196;DHT22;3639;51.308;5.624;2023-02-28T01:01:29;-0.80;99.90
7196;DHT22;3639;51.308;5.624;2023-02-28T01:03:54;-0.80;99.90
7196;DHT22;3639;51.308;5.624;2023-02-28T01:06:20;-0.70;99.90
7196;DHT22;3639;51.308;5.624;2023-02-28T01:08:46;-0.70;99.90
7196;DHT22;3639;51.308;5.624;2023-02-28T01:11:13;-0.70;99.90
7196;DHT22;3639;51.308;5.624;2023-02-28T01:13:41;-0.70;99.90
7196;DHT22;3639;51.308;5.624;2023-02-28T01:16:07;-0.80;99.90
7196;DHT22;3639;51.308;5.624;2023-02-28T01:18:33;-0.80;99.90
7196;DHT22;3639;51.308;5.624;2023-02-28T01:21:06;-0.90;99.90
7196;DHT22;3639;51.308;5.624;2023-02-28T01:23:32;-0.90;99.90
7196;DHT22;3639;51.308;5.624;2023-02-28T01:26:06;-0.80;99.90
7196;DHT22;3639;51.308;5.624;2023-02-28T01:28:32;-0.80;99.90
7196;DHT22;3639;51.308;5.624;2023-02-28T01:30:58;-0.90;99.90
7196;DHT22;3639;51.308;5.624;2023-02-28T01:33:24;-0.90;99.90
7196;DHT22;3639;51.308;5.624;2023-02-28T01:35:58;-0.90;99.90
7196;DHT22;3639;51.308;5.624;2023-02-28T01:38:23;-0.90;99.90
7196;DHT22;3639;51.308;5.624;2023-02-28T01:40:50;-1.00;99.90
7196;DHT22;3639;51.308;5.624;2023-02-28T01:43:23;-1.00;99.90
7196;DHT22;3639;51.308;5.624;2023-02-28T01:45:49;-1.00;99.90
7196;DHT22;3639;51.308;5.624;2023-02-28T01:48:15;-1.10;99.90
7196;DHT22;3639;51.308;5.624;2023-02-28T01:50:43;-1.10;99.90
7196;DHT22;3639;51.308;5.624;2023-02-28T01:53:14;-1.20;99.90
7196;DHT22;3639;51.308;5.624;2023-02-28T01:55:42;-1.20;99.90
7196;DHT22;3639;51.308;5.624;2023-02-28T01:58:08;-1.20;99.90
7196;DHT22;3639;51.308;5.624;2023-02-28T02:00:34;-1.30;99.90
7196;DHT22;3639;51.308;5.624;2023-02-28T02:03:06;-1.20;99.90
7196;DHT22;3639;51.308;5.624;2023-02-28T02:05:32;-1.20;99.90
7196;DHT22;3639;51.308;5.624;2023-02-28T02:08:05;-1.20;99.90
7196;DHT22;3639;51.308;5.624;2023-02-28T02:10:56;-1.20;99.90
7196;DHT22;3639;51.308;5.624;2023-02-28T02:13:54;-1.30;99.90
7196;DHT22;3639;51.308;5.624;2023-02-28T02:19:43;-1.40;99.90
7196;DHT22;3639;51.308;5.624;2023-02-28T02:31:45;-1.60;99.90
7196;DHT22;3639;51.308;5.624;2023-02-28T02:40:27;-1.60;99.90
7196;DHT22;3639;51.308;5.624;2023-02-28T02:43:18;-1.70;99.90
7196;DHT22;3639;51.308;5.624;2023-02-28T02:45:45;-1.70;99.90
7196;DHT22;3639;51.308;5.624;2023-02-28T02:48:14;-1.70;99.90
7196;DHT22;3639;51.308;5.624;2023-02-28T02:50:46;-1.70;99.90
7196;DHT22;3639;51.308;5.624;2023-02-28T02:53:17;-1.70;99.90
7196;DHT22;3639;51.308;5.624;2023-02-28T02:55:47;-1.70;99.90
7196;DHT22;3639;51.308;5.624;2023-02-28T02:58:22;-1.70;99.90
7196;DHT22;3639;51.308;5.624;2023-02-28T03:00:53;-1.60;99.90
7196;DHT22;3639;51.308;5.624;2023-02-28T03:03:20;-1.60;99.90
7196;DHT22;3639;51.308;5.624;2023-02-28T03:05:55;-1.60;99.90
7196;DHT22;3639;51.308;5.624;2023-02-28T03:08:21;-1.60;99.90
7196;DHT22;3639;51.308;5.624;2023-02-28T03:10:51;-1.60;99.90
7196;DHT22;3639;51.308;5.624;2023-02-28T03:21:47;-1.40;99.90
7196;DHT22;3639;51.308;5.624;2023-02-28T03:27:23;-1.30;99.90
7196;DHT22;3639;51.308;5.624;2023-02-28T03:30:57;-1.30;99.90
7196;DHT22;3639;51.308;5.624;2023-02-28T03:32:58;-1.30;99.90
7196;DHT22;3639;51.308;5.624;2023-02-28T03:35:29;-1.20;99.90
7196;DHT22;3639;51.308;5.624;2023-02-28T03:38:08;-1.20;99.90
7196;DHT22;3639;51.308;5.624;2023-02-28T03:40:37;-1.20;99.90
7196;DHT22;3639;51.308;5.624;2023-02-28T03:43:09;-1.30;99.90
7196;DHT22;3639;51.308;5.624;2023-02-28T03:45:38;-1.20;99.90
7196;DHT22;3639;51.308;5.624;2023-02-28T03:50:58;-1.20;99.90
7196;DHT22;3639;51.308;5.624;2023-02-28T03:53:39;-1.30;99.90
7196;DHT22;3639;51.308;5.624;2023-02-28T03:56:19;-1.30;99.90
7196;DHT22;3639;51.308;5.624;2023-02-28T04:01:54;-1.30;99.90
7196;DHT22;3639;51.308;5.624;2023-02-28T04:04:21;-1.20;99.90
7196;DHT22;3639;51.308;5.624;2023-02-28T04:06:50;-1.30;99.90
7196;DHT22;3639;51.308;5.624;2023-02-28T04:09:16;-1.30;99.90
7196;DHT22;3639;51.308;5.624;2023-02-28T04:11:45;-1.40;99.90
7196;DHT22;3639;51.308;5.624;2023-02-28T04:14:12;-1.40;99.90
7196;DHT22;3639;51.308;5.624;2023-02-28T04:16:40;-1.40;99.90
7196;DHT22;3639;51.308;5.624;2023-02-28T04:19:08;-1.40;99.90
7196;DHT22;3639;51.308;5.624;2023-02-28T04:21:38;-1.40;99.90
7196;DHT22;3639;51.308;5.624;2023-02-28T04:24:06;-1.50;99.90
7196;DHT22;3639;51.308;5.624;2023-02-28T04:26:36;-1.50;99.90
7196;DHT22;3639;51.308;5.624;2023-02-28T04:29:04;-1.50;99.90
7196;DHT22;3639;51.308;5.624;2023-02-28T04:31:31;-1.50;99.90
7196;DHT22;3639;51.308;5.624;2023-02-28T04:33:56;-1.60;99.90
7196;DHT22;3639;51.308;5.624;2023-02-28T04:36:22;-1.60;99.90
7196;DHT22;3639;51.308;5.624;2023-02-28T04:38:49;-1.60;99.90
7196;DHT22;3639;51.308;5.624;2023-02-28T04:41:15;-1.70;99.90
7196;DHT22;3639;51.308;5.624;2023-02-28T04:43:42;-1.70;99.90
7196;DHT22;3639;51.308;5.624;2023-02-28T04:46:08;-1.80;99.90
7196;DHT22;3639;51.308;5.624;2023-02-28T04:48:36;-1.80;99.90
7196;DHT22;3639;51.308;5.624;2023-02-28T04:51:04;-1.80;99.90
7196;DHT22;3639;51.308;5.624;2023-02-28T04:53:30;-1.80;99.90
7196;DHT22;3639;51.308;5.624;2023-02-28T04:55:57;-1.80;99.90
7196;DHT22;3639;51.308;5.624;2023-02-28T04:58:23;-1.80;99.90
7196;DHT22;3639;51.308;5.624;2023-02-28T05:00:49;-1.90;99.90
7196;DHT22;3639;51.308;5.624;2023-02-28T05:03:15;-2.00;99.90
7196;DHT22;3639;51.308;5.624;2023-02-28T05:05:41;-2.00;99.90
7196;DHT22;3639;51.308;5.624;2023-02-28T05:08:06;-2.00;99.90
7196;DHT22;3639;51.308;5.624;2023-02-28T05:10:32;-2.00;99.90
7196;DHT22;3639;51.308;5.624;2023-02-28T05:12:58;-2.10;99.90
7196;DHT22;3639;51.308;5.624;2023-02-28T05:15:24;-2.10;99.90
7196;DHT22;3639;51.308;5.624;2023-02-28T05:17:50;-2.10;99.90
7196;DHT22;3639;51.308;5.624;2023-02-28T05:20:15;-2.20;99.90
7196;DHT22;3639;51.308;5.624;2023-02-28T05:22:42;-2.20;99.90
7196;DHT22;3639;51.308;5.624;2023-02-28T05:25:12;-2.30;99.90
7196;DHT22;3639;51.308;5.624;2023-02-28T05:27:38;-2.30;99.90
7196;DHT22;3639;51.308;5.624;2023-02-28T05:30:05;-2.30;99.90
7196;DHT22;3639;51.308;5.624;2023-02-28T05:32:31;-2.40;99.90
7196;DHT22;3639;51.308;5.624;2023-02-28T05:34:58;-2.40;99.90
7196;DHT22;3639;51.308;5.624;2023-02-28T05:37:23;-2.40;99.90
7196;DHT22;3639;51.308;5.624;2023-02-28T05:39:49;-2.50;99.90
7196;DHT22;3639;51.308;5.624;2023-02-28T05:42:15;-2.50;99.90
7196;DHT22;3639;51.308;5.624;2023-02-28T05:44:40;-2.50;99.90
7196;DHT22;3639;51.308;5.624;2023-02-28T05:47:07;-2.40;99.90
7196;DHT22;3639;51.308;5.624;2023-02-28T05:49:33;-2.40;99.90
7196;DHT22;3639;51.308;5.624;2023-02-28T05:51:58;-2.40;99.90
7196;DHT22;3639;51.308;5.624;2023-02-28T05:54:24;-2.40;99.90
7196;DHT22;3639;51.308;5.624;2023-02-28T05:56:50;-2.40;99.90
7196;DHT22;3639;51.308;5.624;2023-02-28T05:59:15;-2.50;99.90
7196;DHT22;3639;51.308;5.624;2023-02-28T06:01:45;-2.50;99.90
7196;DHT22;3639;51.308;5.624;2023-02-28T06:04:15;-2.60;99.90
7196;DHT22;3639;51.308;5.624;2023-02-28T06:06:52;-2.60;99.90
7196;DHT22;3639;51.308;5.624;2023-02-28T06:09:18;-2.60;99.90
7196;DHT22;3639;51.308;5.624;2023-02-28T06:11:44;-2.60;99.90
7196;DHT22;3639;51.308;5.624;2023-02-28T06:14:16;-2.70;99.90
7196;DHT22;3639;51.308;5.624;2023-02-28T06:16:42;-2.70;99.90
7196;DHT22;3639;51.308;5.624;2023-02-28T06:19:09;-2.70;99.90
7196;DHT22;3639;51.308;5.624;2023-02-28T06:21:35;-2.70;99.90
7196;DHT22;3639;51.308;5.624;2023-02-28T06:24:01;-2.70;99.90
7196;DHT22;3639;51.308;5.624;2023-02-28T06:26:27;-2.70;99.90
7196;DHT22;3639;51.308;5.624;2023-02-28T06:28:53;-2.70;99.90
7196;DHT22;3639;51.308;5.624;2023-02-28T06:31:19;-2.70;99.90
7196;DHT22;3639;51.308;5.624;2023-02-28T06:33:45;-2.70;99.90
7196;DHT22;3639;51.308;5.624;2023-02-28T06:36:13;-2.70;99.90
7196;DHT22;3639;51.308;5.624;2023-02-28T06:38:39;-2.70;99.90
7196;DHT22;3639;51.308;5.624;2023-02-28T06:41:06;-2.70;99.90
7196;DHT22;3639;51.308;5.624;2023-02-28T06:43:35;-2.60;99.90
7196;DHT22;3639;51.308;5.624;2023-02-28T06:46:04;-2.50;99.90
7196;DHT22;3639;51.308;5.624;2023-02-28T06:48:30;-2.50;99.90
7196;DHT22;3639;51.308;5.624;2023-02-28T06:51:08;-2.30;99.90
7196;DHT22;3639;51.308;5.624;2023-02-28T06:53:35;-2.30;99.90
7196;DHT22;3639;51.308;5.624;2023-02-28T06:56:04;-2.20;99.90
7196;DHT22;3639;51.308;5.624;2023-02-28T06:58:32;-2.10;99.90
7196;DHT22;3639;51.308;5.624;2023-02-28T07:00:57;-2.00;99.90
7196;DHT22;3639;51.308;5.624;2023-02-28T07:03:23;-2.00;99.90
7196;DHT22;3639;51.308;5.624;2023-02-28T07:05:49;-1.90;99.90
7196;DHT22;3639;51.308;5.624;2023-02-28T07:08:14;-1.80;99.90
7196;DHT22;3639;51.308;5.624;2023-02-28T07:10:40;-1.80;99.90
7196;DHT22;3639;51.308;5.624;2023-02-28T07:13:07;-1.70;99.90
7196;DHT22;3639;51.308;5.624;2023-02-28T07:15:34;-1.70;99.90
7196;DHT22;3639;51.308;5.624;2023-02-28T07:18:00;-1.60;99.90
7196;DHT22;3639;51.308;5.624;2023-02-28T07:20:26;-1.60;99.90
7196;DHT22;3639;51.308;5.624;2023-02-28T07:22:52;-1.50;99.90
7196;DHT22;3639;51.308;5.624;2023-02-28T07:25:30;-1.50;99.90
7196;DHT22;3639;51.308;5.624;2023-02-28T07:27:56;-1.40;99.90
7196;DHT22;3639;51.308;5.624;2023-02-28T07:30:22;-1.40;99.90
7196;DHT22;3639;51.308;5.624;2023-02-28T07:32:48;-1.30;99.90
7196;DHT22;3639;51.308;5.624;2023-02-28T07:35:14;-1.30;99.90
7196;DHT22;3639;51.308;5.624;2023-02-28T07:37:41;-1.20;99.90
7196;DHT22;3639;51.308;5.624;2023-02-28T07:40:09;-1.10;99.90
7196;DHT22;3639;51.308;5.624;2023-02-28T07:42:40;-1.00;99.90
7196;DHT22;3639;51.308;5.624;2023-02-28T07:45:06;-1.00;99.90
7196;DHT22;3639;51.308;5.624;2023-02-28T07:47:32;-0.90;99.90
7196;DHT22;3639;51.308;5.624;2023-02-28T07:49:59;-0.80;99.90
7196;DHT22;3639;51.308;5.624;2023-02-28T07:52:24;-0.70;99.90
7196;DHT22;3639;51.308;5.624;2023-02-28T07:54:51;-0.60;99.90
7196;DHT22;3639;51.308;5.624;2023-02-28T07:57:17;-0.50;99.90
7196;DHT22;3639;51.308;5.624;2023-02-28T07:59:42;-0.40;99.90
7196;DHT22;3639;51.308;5.624;2023-02-28T08:02:15;-0.40;99.90
7196;DHT22;3639;51.308;5.624;2023-02-28T08:04:40;-0.30;99.90
7196;DHT22;3639;51.308;5.624;2023-02-28T08:07:06;-0.20;99.90
7196;DHT22;3639;51.308;5.624;2023-02-28T08:09:33;0.00;99.90
7196;DHT22;3639;51.308;5.624;2023-02-28T08:11:59;0.10;99.90
7196;DHT22;3639;51.308;5.624;2023-02-28T08:14:25;0.20;99.90
7196;DHT22;3639;51.308;5.624;2023-02-28T08:16:51;0.30;99.90
7196;DHT22;3639;51.308;5.624;2023-02-28T08:19:16;0.30;99.90
7196;DHT22;3639;51.308;5.624;2023-02-28T08:21:42;0.40;99.90
7196;DHT22;3639;51.308;5.624;2023-02-28T08:24:08;0.50;99.90
7196;DHT22;3639;51.308;5.624;2023-02-28T08:26:34;0.60;99.90
7196;DHT22;3639;51.308;5.624;2023-02-28T08:28:59;0.70;99.90
7196;DHT22;3639;51.308;5.624;2023-02-28T08:31:25;0.80;99.90
7196;DHT22;3639;51.308;5.624;2023-02-28T08:33:51;0.90;99.90
7196;DHT22;3639;51.308;5.624;2023-02-28T08:36:19;1.00;99.90
7196;DHT22;3639;51.308;5.624;2023-02-28T08:38:44;1.10;99.90
7196;DHT22;3639;51.308;5.624;2023-02-28T08:41:12;1.20;99.90
7196;DHT22;3639;51.308;5.624;2023-02-28T08:43:39;1.30;99.90
7196;DHT22;3639;51.308;5.624;2023-02-28T08:46:05;1.30;99.90
7196;DHT22;3639;51.308;5.624;2023-02-28T08:48:33;1.40;99.90
7196;DHT22;3639;51.308;5.624;2023-02-28T08:51:02;1.40;99.90
7196;DHT22;3639;51.308;5.624;2023-02-28T08:53:29;1.50;99.90
7196;DHT22;3639;51.308;5.624;2023-02-28T08:56:06;1.50;99.90
7196;DHT22;3639;51.308;5.624;2023-02-28T08:58:32;1.60;99.90
7196;DHT22;3639;51.308;5.624;2023-02-28T09:00:59;1.70;99.90
7196;DHT22;3639;51.308;5.624;2023-02-28T09:03:27;1.70;99.90
7196;DHT22;3639;51.308;5.624;2023-02-28T09:05:59;1.80;99.90
7196;DHT22;3639;51.308;5.624;2023-02-28T09:08:27;1.90;99.90
7196;DHT22;3639;51.308;5.624;2023-02-28T09:10:53;2.00;99.90
7196;DHT22;3639;51.308;5.624;2023-02-28T09:13:20;2.00;99.90
7196;DHT22;3639;51.308;5.624;2023-02-28T09:15:46;2.10;99.60
7196;DHT22;3639;51.308;5.624;2023-02-28T09:18:11;2.20;99.50
7196;DHT22;3639;51.308;5.624;2023-02-28T09:20:39;2.30;98.30
7196;DHT22;3639;51.308;5.624;2023-02-28T09:23:06;2.40;97.70
7196;DHT22;3639;51.308;5.624;2023-02-28T09:25:31;2.30;97.00
7196;DHT22;3639;51.308;5.624;2023-02-28T09:27:57;2.30;97.70
7196;DHT22;3639;51.308;5.624;2023-02-28T09:30:23;2.40;96.90
7196;DHT22;3639;51.308;5.624;2023-02-28T09:32:48;2.50;97.00
7196;DHT22;3639;51.308;5.624;2023-02-28T09:35:21;2.60;97.00
7196;DHT22;3639;51.308;5.624;2023-02-28T09:37:49;2.70;95.90
7196;DHT22;3639;51.308;5.624;2023-02-28T09:40:15;2.70;95.80
7196;DHT22;3639;51.308;5.624;2023-02-28T09:42:45;2.90;95.30
7196;DHT22;3639;51.308;5.624;2023-02-28T09:45:33;2.90;94.20
7196;DHT22;3639;51.308;5.624;2023-02-28T09:48:21;3.00;95.30
7196;DHT22;3639;51.308;5.624;2023-02-28T09:51:03;3.10;94.80
7196;DHT22;3639;51.308;5.624;2023-02-28T09:53:35;3.10;93.90
7196;DHT22;3639;51.308;5.624;2023-02-28T09:56:30;3.20;94.10
7196;DHT22;3639;51.308;5.624;2023-02-28T10:01:52;3.40;94.20
7196;DHT22;3639;51.308;5.624;2023-02-28T10:07:37;3.60;92.60
7196;DHT22;3639;51.308;5.624;2023-02-28T10:10:24;3.60;91.30
7196;DHT22;3639;51.308;5.624;2023-02-28T10:12:54;3.70;91.00
7196;DHT22;3639;51.308;5.624;2023-02-28T10:15:23;3.80;90.20
7196;DHT22;3639;51.308;5.624;2023-02-28T10:17:54;3.80;86.90
7196;DHT22;3639;51.308;5.624;2023-02-28T10:20:21;3.80;85.50
7196;DHT22;3639;51.308;5.624;2023-02-28T10:25:35;3.80;85.40
7196;DHT22;3639;51.308;5.624;2023-02-28T10:28:12;3.80;86.30
7196;DHT22;3639;51.308;5.624;2023-02-28T10:30:41;3.90;85.70
7196;DHT22;3639;51.308;5.624;2023-02-28T10:33:21;3.90;83.60
7196;DHT22;3639;51.308;5.624;2023-02-28T10:35:48;3.90;84.80
7196;DHT22;3639;51.308;5.624;2023-02-28T10:38:23;3.90;85.20
7196;DHT22;3639;51.308;5.624;2023-02-28T10:40:50;4.00;84.30
7196;DHT22;3639;51.308;5.624;2023-02-28T11:01:22;4.20;83.70
7196;DHT22;3639;51.308;5.624;2023-02-28T11:03:49;4.20;85.00
7196;DHT22;3639;51.308;5.624;2023-02-28T11:06:34;4.30;83.90
7196;DHT22;3639;51.308;5.624;2023-02-28T11:09:13;4.20;83.90
7196;DHT22;3639;51.308;5.624;2023-02-28T11:11:45;4.20;85.10
7196;DHT22;3639;51.308;5.624;2023-02-28T11:14:33;4.30;84.50
7196;DHT22;3639;51.308;5.624;2023-02-28T11:17:22;4.30;85.20
7196;DHT22;3639;51.308;5.624;2023-02-28T11:19:52;4.40;83.60
7196;DHT22;3639;51.308;5.624;2023-02-28T11:22:21;4.30;84.60
7196;DHT22;3639;51.308;5.624;2023-02-28T11:24:51;4.30;85.80
7196;DHT22;3639;51.308;5.624;2023-02-28T11:29:59;4.30;83.60
7196;DHT22;3639;51.308;5.624;2023-02-28T11:32:27;4.40;84.60
7196;DHT22;3639;51.308;5.624;2023-02-28T11:35:14;4.40;83.90
7196;DHT22;3639;51.308;5.624;2023-02-28T11:37:42;4.30;84.10
7196;DHT22;3639;51.308;5.624;2023-02-28T11:40:21;4.60;84.30
7196;DHT22;3639;51.308;5.624;2023-02-28T11:42:54;4.70;83.90
7196;DHT22;3639;51.308;5.624;2023-02-28T11:45:44;4.90;84.80
7196;DHT22;3639;51.308;5.624;2023-02-28T11:53:48;5.30;83.80
7196;DHT22;3639;51.308;5.624;2023-02-28T11:56:39;5.30;84.00
7196;DHT22;3639;51.308;5.624;2023-02-28T12:05:17;5.30;84.70
7196;DHT22;3639;51.308;5.624;2023-02-28T12:16:41;5.20;84.30
7196;DHT22;3639;51.308;5.624;2023-02-28T12:19:20;5.20;83.50
7196;DHT22;3639;51.308;5.624;2023-02-28T12:22:09;5.00;82.80
7196;DHT22;3639;51.308;5.624;2023-02-28T12:27:44;4.90;83.80
7196;DHT22;3639;51.308;5.624;2023-02-28T12:30:33;4.80;83.40
7196;DHT22;3639;51.308;5.624;2023-02-28T12:33:16;4.80;85.60
7196;DHT22;3639;51.308;5.624;2023-02-28T12:35:57;5.00;86.00
7196;DHT22;3639;51.308;5.624;2023-02-28T12:38:52;5.20;83.90
7196;DHT22;3639;51.308;5.624;2023-02-28T12:44:23;5.20;83.90
7196;DHT22;3639;51.308;5.624;2023-02-28T12:46:54;5.30;85.90
7196;DHT22;3639;51.308;5.624;2023-02-28T12:56:16;5.30;84.50
7196;DHT22;3639;51.308;5.624;2023-02-28T13:01:06;5.10;84.20
7196;DHT22;3639;51.308;5.624;2023-02-28T13:09:30;5.10;84.80
7196;DHT22;3639;51.308;5.624;2023-02-28T13:11:57;5.20;84.90
7196;DHT22;3639;51.308;5.624;2023-02-28T13:14:37;5.20;86.10
7196;DHT22;3639;51.308;5.624;2023-02-28T13:17:11;5.30;83.00
7196;DHT22;3639;51.308;5.624;2023-02-28T13:19:44;5.30;84.30
7196;DHT22;3639;51.308;5.624;2023-02-28T13:22:38;5.20;82.90
7196;DHT22;3639;51.308;5.624;2023-02-28T13:27:52;5.10;84.20
7196;DHT22;3639;51.308;5.624;2023-02-28T13:33:33;5.20;84.00
7196;DHT22;3639;51.308;5.624;2023-02-28T13:38:55;5.30;84.50
7196;DHT22;3639;51.308;5.624;2023-02-28T13:44:08;5.50;85.40
7196;DHT22;3639;51.308;5.624;2023-02-28T13:49:28;5.40;84.10
7196;DHT22;3639;51.308;5.624;2023-02-28T13:55:11;5.30;81.70
7196;DHT22;3639;51.308;5.624;2023-02-28T14:03:41;5.40;83.20
7196;DHT22;3639;51.308;5.624;2023-02-28T14:08:57;5.50;83.30
7196;DHT22;3639;51.308;5.624;2023-02-28T14:11:31;5.50;83.50
7196;DHT22;3639;51.308;5.624;2023-02-28T14:13:57;5.40;81.40
7196;DHT22;3639;51.308;5.624;2023-02-28T14:16:25;5.30;82.10
7196;DHT22;3639;51.308;5.624;2023-02-28T14:19:00;5.30;83.00
7196;DHT22;3639;51.308;5.624;2023-02-28T14:21:34;5.30;82.90
7196;DHT22;3639;51.308;5.624;2023-02-28T14:32:11;5.50;82.20
7196;DHT22;3639;51.308;5.624;2023-02-28T14:37:33;5.50;82.20
7196;DHT22;3639;51.308;5.624;2023-02-28T14:40:02;5.60;82.60
7196;DHT22;3639;51.308;5.624;2023-02-28T14:42:35;5.60;82.60
7196;DHT22;3639;51.308;5.624;2023-02-28T14:45:03;5.60;83.30
7196;DHT22;3639;51.308;5.624;2023-02-28T14:47:33;5.70;83.10
7196;DHT22;3639;51.308;5.624;2023-02-28T14:50:01;5.70;82.00
7196;DHT22;3639;51.308;5.624;2023-02-28T14:52:32;5.60;81.30
7196;DHT22;3639;51.308;5.624;2023-02-28T14:55:01;5.60;81.40
7196;DHT22;3639;51.308;5.624;2023-02-28T14:57:34;5.60;81.10
7196;DHT22;3639;51.308;5.624;2023-02-28T15:00:15;5.60;82.10
7196;DHT22;3639;51.308;5.624;2023-02-28T15:02:42;5.60;82.30
7196;DHT22;3639;51.308;5.624;2023-02-28T15:07:44;5.70;83.60
7196;DHT22;3639;51.308;5.624;2023-02-28T15:10:23;5.70;83.50
7196;DHT22;3639;51.308;5.624;2023-02-28T15:13:00;5.60;82.10
7196;DHT22;3639;51.308;5.624;2023-02-28T15:15:43;5.60;82.20
7196;DHT22;3639;51.308;5.624;2023-02-28T15:18:30;5.60;82.40
7196;DHT22;3639;51.308;5.624;2023-02-28T15:21:05;5.60;82.70
7196;DHT22;3639;51.308;5.624;2023-02-28T15:23:32;5.60;83.50
7196;DHT22;3639;51.308;5.624;2023-02-28T15:26:00;5.60;83.80
7196;DHT22;3639;51.308;5.624;2023-02-28T15:28:26;5.60;84.00
7196;DHT22;3639;51.308;5.624;2023-02-28T15:31:03;5.60;82.90
7196;DHT22;3639;51.308;5.624;2023-02-28T15:33:56;5.50;82.40
7196;DHT22;3639;51.308;5.624;2023-02-28T15:36:25;5.50;82.10
7196;DHT22;3639;51.308;5.624;2023-02-28T15:38:54;5.50;83.50
7196;DHT22;3639;51.308;5.624;2023-02-28T15:41:35;5.50;82.90
7196;DHT22;3639;51.308;5.624;2023-02-28T15:46:55;5.50;83.90
7196;DHT22;3639;51.308;5.624;2023-02-28T15:49:22;5.40;83.30
7196;DHT22;3639;51.308;5.624;2023-02-28T15:51:50;5.40;83.30
7196;DHT22;3639;51.308;5.624;2023-02-28T15:54:24;5.40;83.40
7196;DHT22;3639;51.308;5.624;2023-02-28T15:56:55;5.40;83.30
7196;DHT22;3639;51.308;5.624;2023-02-28T15:59:25;5.30;83.90
7196;DHT22;3639;51.308;5.624;2023-02-28T16:04:36;5.30;84.70
7196;DHT22;3639;51.308;5.624;2023-02-28T16:07:12;5.30;84.70
7196;DHT22;3639;51.308;5.624;2023-02-28T16:09:37;5.20;85.80
7196;DHT22;3639;51.308;5.624;2023-02-28T16:12:04;5.20;85.60
7196;DHT22;3639;51.308;5.624;2023-02-28T16:14:31;5.20;86.10
7196;DHT22;3639;51.308;5.624;2023-02-28T16:17:03;5.20;86.40
7196;DHT22;3639;51.308;5.624;2023-02-28T16:19:29;5.10;86.40
7196;DHT22;3639;51.308;5.624;2023-02-28T16:21:56;5.10;87.10
7196;DHT22;3639;51.308;5.624;2023-02-28T16:24:22;5.10;86.50
7196;DHT22;3639;51.308;5.624;2023-02-28T16:26:49;5.10;86.30
7196;DHT22;3639;51.308;5.624;2023-02-28T16:31:49;5.00;86.60
7196;DHT22;3639;51.308;5.624;2023-02-28T16:34:15;4.90;87.00
7196;DHT22;3639;51.308;5.624;2023-02-28T16:36:41;4.90;87.60
7196;DHT22;3639;51.308;5.624;2023-02-28T16:39:07;4.80;87.80
7196;DHT22;3639;51.308;5.624;2023-02-28T16:41:34;4.80;88.30
7196;DHT22;3639;51.308;5.624;2023-02-28T16:43:59;4.80;88.70
7196;DHT22;3639;51.308;5.624;2023-02-28T16:46:35;4.70;89.30
7196;DHT22;3639;51.308;5.624;2023-02-28T16:49:01;4.70;89.20
7196;DHT22;3639;51.308;5.624;2023-02-28T16:51:27;4.60;89.80
7196;DHT22;3639;51.308;5.624;2023-02-28T16:53:55;4.60;90.00
7196;DHT22;3639;51.308;5.624;2023-02-28T16:56:23;4.50;90.30
7196;DHT22;3639;51.308;5.624;2023-02-28T16:58:50;4.50;90.40
7196;DHT22;3639;51.308;5.624;2023-02-28T17:01:17;4.40;90.70
7196;DHT22;3639;51.308;5.624;2023-02-28T17:03:47;4.30;90.80
7196;DHT22;3639;51.308;5.624;2023-02-28T17:06:28;4.20;90.80
7196;DHT22;3639;51.308;5.624;2023-02-28T17:08:56;4.20;91.00
7196;DHT22;3639;51.308;5.624;2023-02-28T17:11:23;4.10;91.10
7196;DHT22;3639;51.308;5.624;2023-02-28T17:13:49;4.00;91.50
7196;DHT22;3639;51.308;5.624;2023-02-28T17:16:41;3.90;91.60
7196;DHT22;3639;51.308;5.624;2023-02-28T17:19:12;3.80;91.90
7196;DHT22;3639;51.308;5.624;2023-02-28T17:21:39;3.70;92.10
7196;DHT22;3639;51.308;5.624;2023-02-28T17:24:07;3.60;92.40
7196;DHT22;3639;51.308;5.624;2023-02-28T17:26:33;3.60;92.60
7196;DHT22;3639;51.308;5.624;2023-02-28T17:28:59;3.50;92.80
7196;DHT22;3639;51.308;5.624;2023-02-28T17:31:26;3.40;92.90
7196;DHT22;3639;51.308;5.624;2023-02-28T17:33:53;3.30;93.20
7196;DHT22;3639;51.308;5.624;2023-02-28T17:36:24;3.20;93.20
7196;DHT22;3639;51.308;5.624;2023-02-28T17:38:51;3.20;93.20
7196;DHT22;3639;51.308;5.624;2023-02-28T17:41:17;3.10;93.10
7196;DHT22;3639;51.308;5.624;2023-02-28T17:43:43;3.10;93.10
7196;DHT22;3639;51.308;5.624;2023-02-28T17:46:16;3.10;93.20
7196;DHT22;3639;51.308;5.624;2023-02-28T17:48:43;3.00;93.20
7196;DHT22;3639;51.308;5.624;2023-02-28T17:51:11;3.00;93.20
7196;DHT22;3639;51.308;5.624;2023-02-28T17:53:37;3.00;93.40
7196;DHT22;3639;51.308;5.624;2023-02-28T17:56:03;3.00;93.60
7196;DHT22;3639;51.308;5.624;2023-02-28T17:58:29;2.90;93.60
7196;DHT22;3639;51.308;5.624;2023-02-28T18:00:56;2.90;93.70
7196;DHT22;3639;51.308;5.624;2023-02-28T18:03:22;2.80;93.90
7196;DHT22;3639;51.308;5.624;2023-02-28T18:05:49;2.80;94.00
7196;DHT22;3639;51.308;5.624;2023-02-28T18:08:16;2.80;94.10
7196;DHT22;3639;51.308;5.624;2023-02-28T18:10:42;2.70;94.30
7196;DHT22;3639;51.308;5.624;2023-02-28T18:13:07;2.60;94.40
7196;DHT22;3639;51.308;5.624;2023-02-28T18:15:33;2.60;94.70
7196;DHT22;3639;51.308;5.624;2023-02-28T18:17:59;2.50;94.70
7196;DHT22;3639;51.308;5.624;2023-02-28T18:20:25;2.50;94.80
7196;DHT22;3639;51.308;5.624;2023-02-28T18:22:53;2.40;94.90
7196;DHT22;3639;51.308;5.624;2023-02-28T18:25:19;2.40;95.00
7196;DHT22;3639;51.308;5.624;2023-02-28T18:27:45;2.30;95.20
7196;DHT22;3639;51.308;5.624;2023-02-28T18:30:25;2.30;95.10
7196;DHT22;3639;51.308;5.624;2023-02-28T18:32:51;2.30;95.10
7196;DHT22;3639;51.308;5.624;2023-02-28T18:35:17;2.20;95.30
7196;DHT22;3639;51.308;5.624;2023-02-28T18:38:20;2.10;95.40
7196;DHT22;3639;51.308;5.624;2023-02-28T18:41:11;2.10;95.50
7196;DHT22;3639;51.308;5.624;2023-02-28T18:43:37;2.10;95.60
7196;DHT22;3639;51.308;5.624;2023-02-28T18:46:11;2.00;95.70
7196;DHT22;3639;51.308;5.624;2023-02-28T18:48:37;2.00;95.80
7196;DHT22;3639;51.308;5.624;2023-02-28T18:51:18;2.00;95.90
7196;DHT22;3639;51.308;5.624;2023-02-28T18:53:45;1.90;96.00
7196;DHT22;3639;51.308;5.624;2023-02-28T18:56:13;1.90;96.00
7196;DHT22;3639;51.308;5.624;2023-02-28T18:58:40;1.90;96.00
7196;DHT22;3639;51.308;5.624;2023-02-28T19:01:23;1.80;96.30